LTAJ

Gaziantep International Airport

Gaziantep, Turkey
METAR LTAJ 201850Z 34004KT 9999 SCT030 BKN100 15/11 Q1017 NOSIG RMK RWY10 02004KT
Observed Flight Rules
Oct-20 @ 18:50 UTC (31 minutes ago) Visual Flight Rules
Wind Visibility Clouds
340° at 4 knots 10,000+ meters
  • Scattered at 3,000' AGL
  • Broken at 10,000' AGL
Temperatures Readings
Current 15°C / 59°F
Dewpoint 11°C / 52°F
Humidity 77%
Altimeter 30.03" Hg
Pressure 1017 hPa
Elevation 855
METAR LTAJ 201850Z 34004KT 9999 SCT030 BKN100 15/11 Q1017 NOSIG RMK RWY10 02004KT
Observed Flight Rules
Oct-20 @ 18:50 UTC
(31 minutes ago)
VFR
Wind Visibility
340° at 4 knots 10,000+ meters
Clouds
  • Scattered at 3,000' AGL
  • Broken at 10,000' AGL
Temperature Dewpoint
15°C / 59°F 11°C / 52°F
Humidity Altimeter Pressure
77% 30.03" Hg 1017 hPa